Time;durP1;ratioP1;P1;durP2;ratioP2;P2;SDS_P1;SDS_P2;PMS_P1;PMS_P2;Temp;Humidity;BMP_temperature;BMP_pressure;BME280_temperature;BME280_humidity;BME280_pressure;Samples;Min_cycle;Max_cycle;Signal;HPM_P1;HPM_P2
2022/04/19 00:00:46;;;;;;;7.30;4.63;;;5.30;79.60;;;;;;5217374;28;20053;-74
2022/04/19 00:03:20;;;;;;;8.57;4.60;;;5.30;79.60;;;;;;5222146;28;20373;-74
2022/04/19 00:05:52;;;;;;;7.45;4.60;;;5.30;79.50;;;;;;5219239;28;20306;-75
2022/04/19 00:08:25;;;;;;;6.50;4.15;;;5.20;80.20;;;;;;5218985;28;20051;-74
2022/04/19 00:10:59;;;;;;;6.70;4.40;;;5.00;80.50;;;;;;5220348;28;20651;-74
2022/04/19 00:13:32;;;;;;;7.70;4.50;;;4.90;81.00;;;;;;5219199;28;20110;-75
2022/04/19 00:16:04;;;;;;;6.90;4.50;;;4.80;81.70;;;;;;5219416;28;20079;-74
2022/04/19 00:18:37;;;;;;;6.93;4.20;;;4.70;82.00;;;;;;5214131;28;20056;-74
2022/04/19 00:21:09;;;;;;;6.20;4.05;;;4.70;82.20;;;;;;5215365;28;20056;-74
2022/04/19 00:23:43;;;;;;;6.20;4.18;;;4.80;81.90;;;;;;5220318;28;20048;-74
2022/04/19 00:26:15;;;;;;;;;;;4.90;82.30;;;;;;5218214;28;20604;-74
2022/04/19 00:28:48;;;;;;;5.82;3.97;;;4.70;83.40;;;;;;5216746;28;19925;-75
2022/04/19 00:31:20;;;;;;;7.28;4.70;;;4.80;81.60;;;;;;5219532;28;20469;-74
2022/04/19 00:33:53;;;;;;;7.35;4.82;;;4.80;81.80;;;;;;5218590;28;20040;-74
2022/04/19 00:36:26;;;;;;;8.35;4.78;;;4.80;82.10;;;;;;5217262;28;20040;-74
2022/04/19 00:39:00;;;;;;;7.10;4.75;;;4.70;82.30;;;;;;5220921;28;20052;-75
2022/04/19 00:41:33;;;;;;;8.70;4.70;;;4.80;82.00;;;;;;5211109;28;20048;-74
2022/04/19 00:44:07;;;;;;;7.65;5.03;;;4.90;81.80;;;;;;5206097;28;20049;-75
2022/04/19 00:46:40;;;;;;;5.80;4.22;;;4.80;82.10;;;;;;5220960;28;20116;-74
2022/04/19 00:49:12;;;;;;;9.52;4.43;;;4.80;81.50;;;;;;5220895;28;21094;-74
2022/04/19 00:51:46;;;;;;;9.75;4.57;;;4.90;81.40;;;;;;5220281;28;20400;-74
2022/04/19 00:54:22;;;;;;;7.20;4.68;;;4.90;81.20;;;;;;5234770;28;20067;-74
2022/04/19 00:56:55;;;;;;;12.18;4.70;;;4.90;81.10;;;;;;5219409;28;20048;-74
2022/04/19 00:59:29;;;;;;;6.32;4.03;;;4.90;81.20;;;;;;5225709;28;20521;-74
2022/04/19 01:02:02;;;;;;;5.07;4.00;;;4.90;81.50;;;;;;5221623;28;20048;-74
2022/04/19 01:04:35;;;;;;;7.72;4.28;;;4.90;81.80;;;;;;5207380;28;20071;-73
2022/04/19 01:07:09;;;;;;;7.95;4.70;;;4.90;81.80;;;;;;5207321;28;20056;-74
2022/04/19 01:09:42;;;;;;;7.45;4.20;;;4.90;81.90;;;;;;5218782;28;20428;-74
2022/04/19 01:15:11;;;;;;;4.75;3.78;;;4.90;81.80;;;;;;5220790;28;20656;-74
2022/04/19 01:18:04;;;;;;;13.00;3.92;;;5.00;81.20;;;;;;5212153;28;20045;-74
2022/04/19 01:20:40;;;;;;;5.03;3.75;;;5.00;80.90;;;;;;5219863;28;20045;-74
2022/04/19 01:23:20;;;;;;;6.13;3.88;;;5.00;81.00;;;;;;5227204;28;20036;-75
2022/04/19 01:25:53;;;;;;;4.95;3.58;;;5.00;80.80;;;;;;5191927;28;20057;-74
2022/04/19 01:28:25;;;;;;;4.75;3.50;;;5.00;81.10;;;;;;5198525;28;20048;-75
2022/04/19 01:30:58;;;;;;;4.97;3.72;;;4.90;81.10;;;;;;5219058;28;20049;-74
2022/04/19 01:33:36;;;;;;;5.65;3.47;;;5.00;81.10;;;;;;5223727;28;20600;-74
2022/04/19 01:36:12;;;;;;;5.47;3.42;;;5.00;81.00;;;;;;5227585;28;20037;-74
2022/04/19 01:38:49;;;;;;;5.90;3.40;;;5.00;81.00;;;;;;5219414;28;20728;-74
2022/04/19 01:41:25;;;;;;;5.40;3.65;;;5.00;81.00;;;;;;5207131;28;20496;-74
2022/04/19 01:44:05;;;;;;;4.95;3.50;;;5.00;81.20;;;;;;5211343;28;20056;-74
2022/04/19 01:46:37;;;;;;;5.97;3.33;;;4.90;81.90;;;;;;5220731;28;20052;-75
2022/04/19 01:49:09;;;;;;;7.68;3.60;;;4.90;81.50;;;;;;5219336;28;20032;-75
2022/04/19 01:51:42;;;;;;;6.20;3.50;;;4.90;81.40;;;;;;5217170;28;20060;-74
2022/04/19 01:54:15;;;;;;;3.83;3.25;;;4.90;81.60;;;;;;5228365;28;20056;-74
2022/04/19 01:56:48;;;;;;;7.55;3.58;;;4.90;81.80;;;;;;5218072;28;20086;-74
2022/04/19 01:59:34;;;;;;;8.38;3.00;;;4.90;82.30;;;;;;5231231;28;20049;-74
2022/04/19 02:02:19;;;;;;;5.07;3.30;;;4.80;82.40;;;;;;5225760;28;20045;-75
2022/04/19 02:04:52;;;;;;;6.60;4.10;;;4.80;82.90;;;;;;5221272;28;20059;-75
2022/04/19 02:07:25;;;;;;;6.00;3.60;;;4.80;83.50;;;;;;5203954;28;20079;-75
2022/04/19 02:09:59;;;;;;;6.97;3.60;;;4.80;82.80;;;;;;5220612;28;20045;-74
2022/04/19 02:12:33;;;;;;;7.57;3.45;;;4.70;82.80;;;;;;5220467;28;20048;-75
2022/04/19 02:15:25;;;;;;;5.35;3.45;;;4.70;83.80;;;;;;5224565;28;20049;-74
2022/04/19 02:18:01;;;;;;;5.13;3.35;;;4.60;84.40;;;;;;5222292;28;20561;-74
2022/04/19 02:20:34;;;;;;;6.20;3.70;;;4.50;85.20;;;;;;5208111;28;20045;-75
2022/04/19 02:23:06;;;;;;;5.70;3.63;;;4.60;84.90;;;;;;5217358;28;21680;-74
2022/04/19 02:25:39;;;;;;;4.53;3.22;;;4.60;84.40;;;;;;5208712;28;20299;-74
2022/04/19 02:28:15;;;;;;;4.32;3.10;;;4.60;84.20;;;;;;5217675;28;20433;-74
2022/04/19 02:30:55;;;;;;;6.35;3.28;;;4.70;83.90;;;;;;5217480;28;20152;-74
2022/04/19 02:33:31;;;;;;;6.38;3.47;;;4.70;84.00;;;;;;5225609;28;20527;-74
2022/04/19 02:36:06;;;;;;;5.63;3.70;;;4.60;84.40;;;;;;5230183;28;20040;-74
2022/04/19 02:38:39;;;;;;;4.82;3.70;;;4.50;84.70;;;;;;5223710;28;20142;-73
2022/04/19 02:41:12;;;;;;;4.53;3.33;;;4.40;85.30;;;;;;5229289;28;20049;-74
2022/04/19 02:43:46;;;;;;;5.05;3.40;;;4.50;85.40;;;;;;5219611;28;20417;-73
2022/04/19 02:46:18;;;;;;;4.65;3.45;;;4.50;85.90;;;;;;5229104;28;20051;-73
2022/04/19 02:48:57;;;;;;;6.13;3.67;;;4.60;85.70;;;;;;5216465;28;20476;-73
2022/04/19 02:51:33;;;;;;;5.90;3.30;;;4.60;85.90;;;;;;5223949;28;20488;-72
2022/04/19 02:54:06;;;;;;;3.88;3.10;;;4.50;86.60;;;;;;5231791;28;20045;-73
2022/04/19 02:56:38;;;;;;;4.38;3.13;;;4.40;86.70;;;;;;5221946;28;20398;-74
2022/04/19 02:59:12;;;;;;;7.05;3.63;;;4.40;86.90;;;;;;5220921;28;20032;-74
2022/04/19 03:01:44;;;;;;;4.40;3.03;;;4.40;87.10;;;;;;5208831;28;20037;-73
2022/04/19 03:04:18;;;;;;;7.97;3.43;;;4.50;87.20;;;;;;5221884;28;20052;-73
2022/04/19 03:06:50;;;;;;;3.67;3.05;;;4.40;87.30;;;;;;5238365;28;20057;-73
2022/04/19 03:09:22;;;;;;;4.72;3.45;;;4.40;87.40;;;;;;5219904;28;20059;-73
2022/04/19 03:11:55;;;;;;;4.45;3.40;;;4.50;87.50;;;;;;5229380;28;20048;-73
2022/04/19 03:14:28;;;;;;;7.57;3.42;;;4.50;87.50;;;;;;5226315;28;20059;-72
2022/04/19 03:17:01;;;;;;;4.63;3.38;;;4.50;87.70;;;;;;5208907;28;20048;-73
2022/04/19 03:19:34;;;;;;;4.53;3.50;;;4.60;87.70;;;;;;5222058;28;20440;-73
2022/04/19 03:22:07;;;;;;;4.30;3.03;;;4.60;87.90;;;;;;5221150;28;20551;-74
2022/04/19 03:27:41;;;;;;;4.03;3.10;;;4.60;88.10;;;;;;5220166;28;20064;-73
2022/04/19 03:30:16;;;;;;;3.83;2.95;;;4.70;87.70;;;;;;5236251;28;20037;-73
2022/04/19 03:32:52;;;;;;;7.05;2.83;;;4.70;87.80;;;;;;5219510;28;20492;-73
2022/04/19 03:35:25;;;;;;;4.55;3.25;;;4.70;88.00;;;;;;5221582;28;20040;-73
2022/04/19 03:37:57;;;;;;;4.72;3.00;;;4.70;88.00;;;;;;5224154;28;20631;-73
2022/04/19 03:40:30;;;;;;;6.65;3.30;;;4.70;88.10;;;;;;5223799;28;20431;-73
2022/04/19 03:43:07;;;;;;;7.53;3.38;;;4.80;88.20;;;;;;5213329;28;20388;-73
2022/04/19 03:45:40;;;;;;;4.28;3.53;;;4.80;88.70;;;;;;5208613;28;20053;-73
2022/04/19 03:48:15;;;;;;;4.90;3.88;;;4.80;89.80;;;;;;5221369;28;20053;-73
2022/04/19 03:50:51;;;;;;;6.20;4.13;;;4.80;89.80;;;;;;5215136;28;20072;-73
2022/04/19 03:53:24;;;;;;;4.68;3.25;;;4.80;90.00;;;;;;5224561;28;20064;-73
2022/04/19 03:55:58;;;;;;;6.07;4.00;;;4.90;89.80;;;;;;5230096;28;20075;-73
2022/04/19 03:58:32;;;;;;;9.23;3.72;;;4.80;90.30;;;;;;5210539;28;20972;-73
2022/04/19 04:01:06;;;;;;;9.27;3.63;;;4.80;90.90;;;;;;5205523;28;20045;-73
2022/04/19 04:03:39;;;;;;;4.35;3.40;;;4.70;91.40;;;;;;5221665;28;20105;-73
2022/04/19 04:06:11;;;;;;;4.80;3.50;;;4.70;91.90;;;;;;5230246;28;20051;-73
2022/04/19 04:08:45;;;;;;;4.78;3.03;;;4.60;92.10;;;;;;5223889;28;20083;-73
2022/04/19 04:11:18;;;;;;;6.45;4.05;;;4.70;92.50;;;;;;5231254;28;20887;-73
2022/04/19 04:14:01;;;;;;;8.18;3.55;;;4.60;92.60;;;;;;5224333;28;20048;-73
2022/04/19 04:16:33;;;;;;;7.65;4.32;;;4.60;92.60;;;;;;5220345;28;20053;-73
2022/04/19 04:19:07;;;;;;;4.80;3.17;;;4.70;92.60;;;;;;5219148;28;20044;-73
2022/04/19 04:21:39;;;;;;;6.25;3.50;;;4.60;92.80;;;;;;5218224;28;20040;-73
2022/04/19 04:24:12;;;;;;;6.75;3.80;;;4.70;92.80;;;;;;5198069;28;20048;-74
2022/04/19 04:26:47;;;;;;;6.63;3.22;;;4.60;93.00;;;;;;5205667;28;20099;-73
2022/04/19 04:29:22;;;;;;;8.00;3.80;;;4.60;93.20;;;;;;5223119;28;20044;-73
2022/04/19 04:31:57;;;;;;;5.32;3.30;;;4.60;93.70;;;;;;5206006;28;20056;-73
2022/04/19 04:34:30;;;;;;;5.90;3.22;;;4.50;93.90;;;;;;5229271;28;20053;-72
2022/04/19 04:37:04;;;;;;;8.45;3.72;;;4.50;93.70;;;;;;5229563;28;20048;-72
2022/04/19 04:39:38;;;;;;;4.38;3.50;;;4.50;93.80;;;;;;5222810;28;20044;-74
2022/04/19 04:42:37;;;;;;;6.72;3.67;;;4.50;93.60;;;;;;5215686;28;20045;-73
2022/04/19 04:45:17;;;;;;;5.63;3.33;;;4.50;93.50;;;;;;5224917;28;20382;-73
2022/04/19 04:50:42;;;;;;;6.82;3.55;;;4.50;93.10;;;;;;5219048;28;20055;-73
2022/04/19 04:53:15;;;;;;;6.70;3.65;;;4.50;93.00;;;;;;5217729;28;20048;-73
2022/04/19 04:56:00;;;;;;;6.82;3.53;;;4.60;93.00;;;;;;5211346;28;20045;-72
2022/04/19 04:58:33;;;;;;;8.20;4.25;;;4.60;92.80;;;;;;5218679;28;20056;-73
2022/04/19 05:01:05;;;;;;;6.80;3.90;;;4.70;92.70;;;;;;5203776;28;20049;-73
2022/04/19 05:03:39;;;;;;;5.32;3.35;;;4.80;92.90;;;;;;5221551;28;20049;-73
2022/04/19 05:06:12;;;;;;;4.57;3.63;;;4.80;93.20;;;;;;5219678;28;20052;-73
2022/04/19 05:08:44;;;;;;;8.57;3.53;;;4.80;93.30;;;;;;5222355;28;20292;-73
2022/04/19 05:11:17;;;;;;;5.53;3.60;;;4.80;93.30;;;;;;5220805;28;20060;-73
2022/04/19 05:13:50;;;;;;;6.07;3.90;;;4.80;93.10;;;;;;5218024;28;20052;-73
2022/04/19 05:16:27;;;;;;;5.50;3.92;;;4.80;93.30;;;;;;5222366;28;20422;-75
2022/04/19 05:19:03;;;;;;;7.35;3.63;;;4.80;93.70;;;;;;5227803;28;20436;-73
2022/04/19 05:21:39;;;;;;;4.70;3.60;;;4.90;94.10;;;;;;5229907;28;20730;-73
2022/04/19 05:24:12;;;;;;;4.55;3.25;;;4.90;94.20;;;;;;5223169;28;20382;-73
2022/04/19 05:26:45;;;;;;;4.28;3.50;;;4.90;94.00;;;;;;5211383;28;20071;-73
2022/04/19 05:29:20;;;;;;;5.80;3.53;;;5.00;93.80;;;;;;5217184;28;20049;-73
2022/04/19 05:31:54;;;;;;;4.78;3.72;;;5.00;93.80;;;;;;5228690;28;20053;-73
2022/04/19 05:34:26;;;;;;;7.43;3.70;;;5.20;93.90;;;;;;5220760;28;20044;-73
2022/04/19 05:36:59;;;;;;;5.95;3.55;;;5.30;94.00;;;;;;5234260;28;20041;-73
2022/04/19 05:39:31;;;;;;;4.40;3.42;;;5.40;93.70;;;;;;5196751;28;20044;-72
2022/04/19 05:42:04;;;;;;;8.43;3.42;;;5.40;94.60;;;;;;5213038;28;20037;-73
2022/04/19 05:44:37;;;;;;;4.68;3.42;;;5.50;96.10;;;;;;5216815;28;20041;-73
2022/04/19 05:47:10;;;;;;;4.13;3.20;;;5.50;96.90;;;;;;5203298;28;20037;-73
2022/04/19 05:49:45;;;;;;;4.20;3.42;;;5.60;97.10;;;;;;5229773;28;20053;-73
2022/04/19 05:52:17;;;;;;;6.10;3.97;;;5.60;96.80;;;;;;5209320;28;20048;-73
2022/04/19 05:54:51;;;;;;;5.72;3.83;;;5.70;96.10;;;;;;5217920;28;20053;-73
2022/04/19 05:57:23;;;;;;;6.88;3.88;;;5.80;96.00;;;;;;5219531;28;20071;-73
2022/04/19 05:59:56;;;;;;;7.03;4.63;;;5.90;95.60;;;;;;5222538;28;20500;-73
2022/04/19 06:05:21;;;;;;;8.05;4.53;;;6.10;94.60;;;;;;5221113;28;20416;-73
2022/04/19 06:07:54;;;;;;;9.63;4.80;;;6.20;93.00;;;;;;5215013;28;20485;-73
2022/04/19 06:10:27;;;;;;;6.38;4.55;;;6.50;92.50;;;;;;5217080;28;20048;-74
2022/04/19 06:12:59;;;;;;;6.13;3.83;;;6.60;91.10;;;;;;5218554;28;20052;-74
2022/04/19 06:15:32;;;;;;;7.82;3.38;;;6.70;89.50;;;;;;5213568;28;20682;-74
2022/04/19 06:18:06;;;;;;;6.22;4.00;;;6.90;87.30;;;;;;5214991;28;20057;-74
2022/04/19 06:21:01;;;;;;;8.38;4.32;;;7.10;86.50;;;;;;5220180;28;20127;-74
2022/04/19 06:23:34;;;;;;;7.25;3.97;;;7.20;86.70;;;;;;5221002;28;21007;-74
2022/04/19 06:26:07;;;;;;;;;;;7.30;85.60;;;;;;5233794;28;20419;-74
2022/04/19 06:28:40;;;;;;;9.60;3.53;;;7.30;83.40;;;;;;5226160;28;19924;-74
2022/04/19 06:31:22;;;;;;;10.10;3.05;;;7.40;83.60;;;;;;5221034;28;20045;-74
2022/04/19 06:34:03;;;;;;;5.07;3.45;;;7.50;82.50;;;;;;5212406;28;20637;-74
2022/04/19 06:36:56;;;;;;;5.10;2.92;;;7.60;82.40;;;;;;5218867;28;20957;-74
2022/04/19 06:39:29;;;;;;;7.45;3.30;;;7.70;81.30;;;;;;5234411;28;20567;-74
2022/04/19 06:42:04;;;;;;;8.85;3.47;;;7.80;82.00;;;;;;5217280;28;20509;-74
2022/04/19 06:44:56;;;;;;;6.50;3.10;;;8.00;80.20;;;;;;5220883;28;20053;-74
2022/04/19 06:47:34;;;;;;;5.68;3.08;;;8.10;79.40;;;;;;5217816;28;20041;-74
2022/04/19 06:50:08;;;;;;;6.90;3.22;;;8.20;79.30;;;;;;5229930;28;20528;-74
2022/04/19 06:52:41;;;;;;;6.67;3.33;;;8.30;78.80;;;;;;5226609;28;20453;-75
2022/04/19 06:55:34;;;;;;;5.40;2.85;;;8.40;78.10;;;;;;5219686;28;20052;-74
2022/04/19 06:58:06;;;;;;;7.75;2.70;;;8.60;77.40;;;;;;5216821;28;20937;-73
2022/04/19 07:00:41;;;;;;;5.68;2.85;;;8.70;76.20;;;;;;5218628;28;20056;-73
2022/04/19 07:03:22;;;;;;;4.35;2.80;;;8.70;76.00;;;;;;5224187;28;20052;-74
2022/04/19 07:06:14;;;;;;;3.90;2.90;;;8.80;74.80;;;;;;5222076;28;20048;-74
2022/04/19 07:08:47;;;;;;;8.10;3.05;;;9.00;75.10;;;;;;5217659;28;20045;-74
2022/04/19 07:11:20;;;;;;;4.75;2.97;;;9.10;73.70;;;;;;5221254;28;20622;-74
2022/04/19 07:14:11;;;;;;;6.35;3.08;;;9.00;72.20;;;;;;5217465;28;20060;-74
2022/04/19 07:17:02;;;;;;;4.72;3.05;;;9.20;73.70;;;;;;5209570;28;20048;-74
2022/04/19 07:28:23;;;;;;;6.07;2.78;;;9.60;72.00;;;;;;5218567;28;20049;-74
2022/04/19 07:30:56;;;;;;;6.13;3.55;;;9.70;71.80;;;;;;5221984;28;20416;-74
2022/04/19 07:33:37;;;;;;;5.65;3.50;;;9.80;72.60;;;;;;5226480;28;20051;-74
2022/04/19 07:36:11;;;;;;;9.43;3.90;;;9.90;70.80;;;;;;5229987;28;20063;-74
2022/04/19 07:38:50;;;;;;;5.40;3.47;;;10.00;70.80;;;;;;5231372;28;20594;-74
2022/04/19 07:41:26;;;;;;;8.25;4.15;;;10.20;70.30;;;;;;5201036;28;20049;-74
2022/04/19 07:43:58;;;;;;;9.82;4.53;;;10.50;69.50;;;;;;5216139;28;20509;-74
2022/04/19 07:46:32;;;;;;;11.82;4.70;;;10.60;68.20;;;;;;5219165;28;20044;-74
2022/04/19 07:49:04;;;;;;;8.63;4.88;;;10.70;68.10;;;;;;5221026;28;20063;-74
2022/04/19 07:51:37;;;;;;;6.45;4.93;;;10.80;67.10;;;;;;5220382;28;20052;-74
2022/04/19 07:54:09;;;;;;;13.57;5.50;;;10.70;66.20;;;;;;5231892;28;20049;-74
2022/04/19 07:56:42;;;;;;;8.93;5.07;;;10.80;66.30;;;;;;5221867;28;20044;-74
2022/04/19 07:59:14;;;;;;;10.85;5.13;;;10.80;66.10;;;;;;5224556;28;21974;-74
2022/04/19 08:01:47;;;;;;;9.75;5.20;;;11.00;66.50;;;;;;5197913;28;20075;-73
2022/04/19 08:04:20;;;;;;;11.27;5.55;;;11.00;65.20;;;;;;5218921;28;20044;-74
2022/04/19 08:06:53;;;;;;;12.23;5.60;;;11.10;65.40;;;;;;5227962;28;20405;-74
2022/04/19 08:09:25;;;;;;;12.95;5.28;;;11.10;65.00;;;;;;5206455;28;20134;-75
2022/04/19 08:11:58;;;;;;;8.90;5.95;;;11.20;65.30;;;;;;5225459;28;20428;-74
2022/04/19 08:14:31;;;;;;;8.47;5.77;;;11.30;64.70;;;;;;5210028;28;21081;-74
2022/04/19 08:17:04;;;;;;;10.30;5.63;;;11.30;65.40;;;;;;5219046;28;20064;-74
2022/04/19 08:19:36;;;;;;;8.75;5.60;;;11.30;64.50;;;;;;5195679;28;20793;-74
2022/04/19 08:22:09;;;;;;;14.18;5.68;;;11.30;64.70;;;;;;5222407;28;20052;-74
2022/04/19 08:24:50;;;;;;;12.82;5.65;;;11.40;63.90;;;;;;5199113;28;20055;-74
2022/04/19 08:27:23;;;;;;;11.82;5.70;;;11.40;64.30;;;;;;5212705;28;20045;-74
2022/04/19 08:29:58;;;;;;;9.35;4.93;;;11.50;64.50;;;;;;5220590;28;20045;-74
2022/04/19 08:32:31;;;;;;;9.68;5.13;;;11.60;63.70;;;;;;5216928;28;20528;-74
2022/04/19 08:35:05;;;;;;;10.50;5.30;;;11.60;63.60;;;;;;5226073;28;20048;-74
2022/04/19 08:37:38;;;;;;;11.27;5.15;;;11.70;63.80;;;;;;5194266;28;20101;-74
2022/04/19 08:40:18;;;;;;;16.70;6.03;;;11.70;63.20;;;;;;5231941;28;20044;-75
2022/04/19 08:42:56;;;;;;;9.98;5.25;;;11.60;63.10;;;;;;5235178;28;20057;-74
2022/04/19 08:45:29;;;;;;;10.75;5.85;;;11.70;63.90;;;;;;5220241;28;20053;-73
2022/04/19 08:48:07;;;;;;;14.48;5.97;;;11.80;63.20;;;;;;5220040;28;20500;-74
2022/04/19 08:50:40;;;;;;;11.65;5.18;;;11.80;63.10;;;;;;5220282;28;20139;-74
2022/04/19 08:58:55;;;;;;;12.45;6.45;;;12.00;62.90;;;;;;5219095;28;20740;-74
2022/04/19 09:01:29;;;;;;;10.38;5.78;;;12.20;62.50;;;;;;5225226;28;20055;-74
2022/04/19 09:04:04;;;;;;;10.65;5.55;;;12.30;62.20;;;;;;5224294;28;20057;-75
2022/04/19 09:06:52;;;;;;;16.38;6.05;;;12.30;61.60;;;;;;5227086;28;20063;-75
2022/04/19 09:09:27;;;;;;;15.73;6.13;;;12.30;61.20;;;;;;5214385;28;20053;-74
2022/04/19 09:12:09;;;;;;;10.70;5.97;;;12.30;61.70;;;;;;5220920;28;20057;-74
2022/04/19 09:15:06;;;;;;;9.82;6.22;;;12.30;61.80;;;;;;5218962;28;20049;-74
2022/04/19 09:17:43;;;;;;;9.77;6.50;;;12.40;60.90;;;;;;5209548;28;20075;-74
2022/04/19 09:20:19;;;;;;;11.38;6.50;;;12.40;61.40;;;;;;5241827;28;20064;-74
2022/04/19 09:23:07;;;;;;;12.90;7.30;;;12.40;62.80;;;;;;5219019;28;20049;-74
2022/04/19 09:25:39;;;;;;;11.45;6.78;;;12.40;61.40;;;;;;5220153;28;20052;-75
2022/04/19 09:28:20;;;;;;;9.70;6.60;;;12.50;62.00;;;;;;5221506;28;20059;-74
2022/04/19 09:30:57;;;;;;;11.32;6.80;;;12.50;61.30;;;;;;5217767;28;20064;-74
2022/04/19 09:33:30;;;;;;;11.93;6.50;;;12.60;61.60;;;;;;5209019;28;20838;-74
2022/04/19 09:36:04;;;;;;;15.27;7.13;;;12.70;61.50;;;;;;5220899;28;20045;-75
2022/04/19 09:38:44;;;;;;;14.88;8.20;;;12.70;61.10;;;;;;5225514;28;20040;-74
2022/04/19 09:41:29;;;;;;;10.57;7.35;;;12.80;61.20;;;;;;5216939;28;20654;-74
2022/04/19 09:44:29;;;;;;;13.27;7.25;;;12.90;61.60;;;;;;5220355;28;20397;-74
2022/04/19 09:47:11;;;;;;;14.63;7.30;;;13.00;61.00;;;;;;5219083;28;20056;-74
2022/04/19 09:49:49;;;;;;;12.52;7.63;;;13.00;60.50;;;;;;5221421;28;20048;-74
2022/04/19 09:52:21;;;;;;;14.90;7.88;;;13.10;60.00;;;;;;5222298;28;20459;-74
2022/04/19 09:55:00;;;;;;;11.82;7.53;;;13.10;60.70;;;;;;5222479;28;20032;-75
2022/04/19 09:57:36;;;;;;;13.05;7.57;;;13.20;60.90;;;;;;5222879;28;20051;-75
2022/04/19 10:00:12;;;;;;;12.25;7.88;;;13.10;60.70;;;;;;5221140;28;20059;-74
2022/04/19 10:08:29;;;;;;;14.88;8.55;;;13.30;61.00;;;;;;5229528;28;20053;-74
2022/04/19 10:11:03;;;;;;;12.30;7.85;;;13.20;60.90;;;;;;5220557;28;20051;-74
2022/04/19 10:13:38;;;;;;;17.30;7.90;;;13.30;61.80;;;;;;5219732;28;20053;-74
2022/04/19 10:16:12;;;;;;;10.30;7.57;;;13.40;61.70;;;;;;5229251;28;20385;-74
2022/04/19 10:18:45;;;;;;;13.18;8.45;;;13.50;61.90;;;;;;5218669;28;20064;-74
2022/04/19 10:21:25;;;;;;;12.27;7.43;;;13.60;60.70;;;;;;5216602;28;20060;-74
2022/04/19 10:24:13;;;;;;;13.88;8.27;;;13.70;61.30;;;;;;5220611;28;20045;-74
2022/04/19 10:26:47;;;;;;;16.15;8.98;;;13.80;61.40;;;;;;5213272;28;20037;-74
2022/04/19 10:29:29;;;;;;;13.77;8.45;;;13.90;61.00;;;;;;5208935;28;20076;-75
2022/04/19 10:32:06;;;;;;;13.23;7.90;;;14.10;60.70;;;;;;5218405;28;20497;-74
2022/04/19 10:34:44;;;;;;;11.80;7.00;;;14.20;60.90;;;;;;5223436;28;20452;-74
2022/04/19 10:37:24;;;;;;;14.77;8.27;;;14.40;60.00;;;;;;5219613;28;20041;-75
2022/04/19 10:39:59;;;;;;;12.20;7.22;;;14.50;59.20;;;;;;5220248;28;20670;-74
2022/04/19 10:42:34;;;;;;;14.90;7.97;;;14.80;59.20;;;;;;5217667;28;20401;-74
2022/04/19 10:45:13;;;;;;;16.08;8.48;;;14.90;58.30;;;;;;5218572;28;20045;-74
2022/04/19 10:47:52;;;;;;;11.52;7.50;;;14.90;56.20;;;;;;5213867;28;20060;-74
2022/04/19 10:50:29;;;;;;;14.07;7.78;;;14.80;57.50;;;;;;5216019;28;20041;-74
2022/04/19 10:53:07;;;;;;;11.73;8.38;;;14.90;57.60;;;;;;5221758;28;20044;-75
2022/04/19 10:55:41;;;;;;;20.02;9.45;;;14.90;56.60;;;;;;5222564;28;20496;-74
2022/04/19 10:58:18;;;;;;;11.80;7.78;;;14.90;56.80;;;;;;5220308;28;20044;-75
2022/04/19 11:01:00;;;;;;;13.63;8.05;;;14.80;56.30;;;;;;5221740;28;20044;-75
2022/04/19 11:03:46;;;;;;;11.57;7.32;;;14.80;56.70;;;;;;5221584;28;20037;-74
2022/04/19 11:06:40;;;;;;;10.07;6.95;;;14.90;56.00;;;;;;5225465;28;20050;-74
2022/04/19 11:09:23;;;;;;;12.50;7.28;;;15.00;55.40;;;;;;5222173;28;20675;-74
2022/04/19 11:12:09;;;;;;;10.65;7.60;;;15.10;55.10;;;;;;5231683;28;20115;-74
2022/04/19 11:14:43;;;;;;;13.60;7.88;;;15.10;54.50;;;;;;5221760;28;20064;-75
2022/04/19 11:17:40;;;;;;;11.60;7.57;;;15.10;55.60;;;;;;5224049;28;20593;-74
2022/04/19 11:20:14;;;;;;;13.43;8.57;;;15.30;54.40;;;;;;5226926;28;20148;-74
2022/04/19 11:22:51;;;;;;;15.63;8.23;;;15.70;54.80;;;;;;5233337;28;21354;-74
2022/04/19 11:25:40;;;;;;;12.45;6.88;;;15.90;54.50;;;;;;5229666;28;20041;-74
2022/04/19 11:28:16;;;;;;;9.70;7.68;;;15.80;52.90;;;;;;5223119;28;20048;-74
2022/04/19 11:30:57;;;;;;;10.20;7.38;;;15.80;53.40;;;;;;5220507;28;20057;-74
2022/04/19 11:33:34;;;;;;;10.18;7.88;;;15.90;53.70;;;;;;5221369;28;20618;-74
2022/04/19 11:36:14;;;;;;;18.02;7.43;;;15.90;53.10;;;;;;5222953;28;20053;-74
2022/04/19 11:38:49;;;;;;;9.95;7.30;;;16.00;53.00;;;;;;5219550;28;20064;-74
2022/04/19 11:46:48;;;;;;;9.27;7.57;;;17.50;52.20;;;;;;5223496;28;20668;-74
2022/04/19 11:49:34;;;;;;;9.25;7.03;;;17.90;50.10;;;;;;5220213;28;20052;-75
2022/04/19 11:52:13;;;;;;;12.07;7.80;;;18.10;48.00;;;;;;5225825;28;20040;-75
2022/04/19 11:54:45;;;;;;;12.52;7.00;;;17.80;48.30;;;;;;5221757;28;20056;-74
2022/04/19 11:57:18;;;;;;;11.07;7.70;;;17.70;49.30;;;;;;5222145;28;20044;-74
2022/04/19 11:59:52;;;;;;;13.30;6.70;;;17.40;49.70;;;;;;5219515;28;20047;-74
2022/04/19 12:02:25;;;;;;;10.68;6.75;;;17.30;50.30;;;;;;5231498;28;20493;-74
2022/04/19 12:05:02;;;;;;;15.05;7.07;;;17.40;50.70;;;;;;5221862;28;20043;-74
2022/04/19 12:07:45;;;;;;;14.73;7.50;;;17.40;50.10;;;;;;5224804;28;20065;-74
2022/04/19 12:10:17;;;;;;;8.63;6.85;;;17.00;49.00;;;;;;5217851;28;20044;-75
2022/04/19 12:12:50;;;;;;;10.77;6.85;;;16.80;50.00;;;;;;5221162;28;20996;-74
2022/04/19 12:15:41;;;;;;;13.82;7.10;;;16.80;50.50;;;;;;5221905;28;20420;-74
2022/04/19 12:18:31;;;;;;;12.07;7.60;;;16.70;49.80;;;;;;5214292;28;20053;-74
2022/04/19 12:21:06;;;;;;;10.35;6.57;;;16.80;49.20;;;;;;5221022;28;20049;-74
2022/04/19 12:23:39;;;;;;;9.40;6.57;;;16.80;50.50;;;;;;5222589;28;20409;-75
2022/04/19 12:26:11;;;;;;;8.98;6.40;;;17.10;50.70;;;;;;5222492;28;20511;-74
2022/04/19 12:28:46;;;;;;;12.07;7.03;;;17.30;50.40;;;;;;5220874;28;20413;-74
2022/04/19 12:31:32;;;;;;;12.90;7.63;;;17.00;49.90;;;;;;5218015;28;20516;-74
2022/04/19 12:34:09;;;;;;;13.10;6.55;;;17.00;50.40;;;;;;5221510;28;20067;-74
2022/04/19 12:36:51;;;;;;;8.40;6.80;;;17.00;51.00;;;;;;5220616;28;20088;-75
2022/04/19 12:39:23;;;;;;;9.70;7.03;;;17.10;49.80;;;;;;5221935;28;20045;-74
2022/04/19 12:42:09;;;;;;;10.98;6.70;;;17.00;50.00;;;;;;5220059;28;20037;-74
2022/04/19 12:45:05;;;;;;;9.68;7.68;;;17.00;50.50;;;;;;5224454;28;20048;-74
2022/04/19 12:47:50;;;;;;;12.25;7.03;;;16.90;49.60;;;;;;5222048;28;20044;-75
2022/04/19 12:50:22;;;;;;;10.52;7.13;;;16.80;50.10;;;;;;5220465;28;20642;-74
2022/04/19 12:52:55;;;;;;;16.33;7.78;;;17.00;51.20;;;;;;5220399;28;20048;-73
2022/04/19 12:55:31;;;;;;;8.82;6.88;;;17.00;50.10;;;;;;5221292;28;20067;-73
2022/04/19 12:58:08;;;;;;;13.23;6.70;;;17.40;49.90;;;;;;5217367;28;20059;-73
2022/04/19 13:00:40;;;;;;;8.88;6.60;;;17.60;48.30;;;;;;5221855;28;20052;-74
2022/04/19 13:03:14;;;;;;;10.68;7.00;;;17.60;48.00;;;;;;5220247;28;20053;-74
2022/04/19 13:14:21;;;;;;;13.43;7.07;;;18.50;46.60;;;;;;5221638;28;20079;-74
2022/04/19 13:16:53;;;;;;;10.45;6.68;;;18.20;47.00;;;;;;5221575;28;20059;-73
2022/04/19 13:19:26;;;;;;;11.70;6.20;;;18.10;47.20;;;;;;5220757;28;20052;-74
2022/04/19 13:21:58;;;;;;;12.32;6.18;;;18.10;47.50;;;;;;5217895;28;20127;-73
2022/04/19 13:24:31;;;;;;;13.13;6.10;;;17.90;46.90;;;;;;5229514;28;20052;-75
2022/04/19 13:27:06;;;;;;;8.50;5.07;;;17.80;47.10;;;;;;5219861;28;20041;-74
2022/04/19 13:29:40;;;;;;;10.30;6.18;;;17.80;47.20;;;;;;5221134;28;20068;-74
2022/04/19 13:32:13;;;;;;;8.02;6.03;;;17.60;46.80;;;;;;5221704;28;20495;-74
2022/04/19 13:34:46;;;;;;;6.87;5.50;;;17.60;47.70;;;;;;5222256;28;20057;-74
2022/04/19 13:38:23;;;;;;;10.63;5.55;;;17.50;48.10;;;;;;5221124;28;20535;-75
2022/04/19 13:40:11;;;;;;;8.23;5.65;;;17.60;47.60;;;;;;5222979;28;20044;-73
2022/04/19 13:42:45;;;;;;;;;;;17.50;47.60;;;;;;5215188;28;20048;-74
2022/04/19 13:45:20;;;;;;;9.98;5.38;;;17.40;47.10;;;;;;5219495;28;20420;-74
2022/04/19 13:47:53;;;;;;;7.72;5.05;;;17.30;47.90;;;;;;5212754;28;20045;-74
2022/04/19 13:50:27;;;;;;;10.77;6.25;;;17.20;47.90;;;;;;5192893;28;20048;-74
2022/04/19 13:53:01;;;;;;;6.18;5.00;;;17.00;47.40;;;;;;5220675;28;20045;-74
2022/04/19 13:55:33;;;;;;;8.27;4.93;;;17.00;47.90;;;;;;5218563;28;20049;-74
2022/04/19 13:58:07;;;;;;;11.25;5.45;;;17.00;47.90;;;;;;5209035;28;20036;-74
2022/04/19 14:00:40;;;;;;;6.03;5.10;;;17.00;48.20;;;;;;5219684;28;20056;-74
2022/04/19 14:03:13;;;;;;;9.18;5.45;;;17.20;48.10;;;;;;5222183;28;20041;-74
2022/04/19 14:05:48;;;;;;;5.95;4.63;;;17.30;48.20;;;;;;5219526;28;20331;-74
2022/04/19 14:08:20;;;;;;;7.13;4.93;;;17.30;48.30;;;;;;5217539;28;20056;-73
2022/04/19 14:10:53;;;;;;;8.23;4.50;;;17.20;48.00;;;;;;5215562;28;20049;-74
2022/04/19 14:13:28;;;;;;;6.78;4.18;;;17.10;47.40;;;;;;5218209;28;20064;-74
2022/04/19 14:16:00;;;;;;;4.53;3.47;;;17.10;48.30;;;;;;5220079;28;20573;-74
2022/04/19 14:18:33;;;;;;;6.65;4.40;;;16.90;47.20;;;;;;5216669;28;20036;-73
2022/04/19 14:21:07;;;;;;;6.82;3.58;;;17.10;47.20;;;;;;5217712;28;20044;-73